createdAt,value
2023-04-16T00:01:40.523Z,93.37
2023-04-16T00:04:07.462Z,93.35
2023-04-16T00:06:34.417Z,93.58
2023-04-16T00:09:01.380Z,93.64
2023-04-16T00:11:28.164Z,93.52
2023-04-16T00:13:54.833Z,93.63
2023-04-16T00:16:21.645Z,93.41
2023-04-16T00:18:48.441Z,93.41
2023-04-16T00:21:15.252Z,93.15
2023-04-16T00:23:42.055Z,93.44
2023-04-16T00:26:09.246Z,93.62
2023-04-16T00:28:36.237Z,93.55
2023-04-16T00:31:03.217Z,93.66
2023-04-16T00:33:30.431Z,93.35
2023-04-16T00:35:57.188Z,93.55
2023-04-16T00:38:24.174Z,93.51
2023-04-16T00:40:50.871Z,93.58
2023-04-16T00:43:25.614Z,93.73
2023-04-16T00:45:54.285Z,93.98
2023-04-16T00:48:21.312Z,93.95
2023-04-16T00:50:48.685Z,94.45
2023-04-16T00:53:16.352Z,94.36
2023-04-16T00:55:44.033Z,94.28
2023-04-16T00:58:11.038Z,94.55
2023-04-16T01:00:37.852Z,94.71
2023-04-16T01:03:05.891Z,94.60
2023-04-16T01:05:32.793Z,94.69
2023-04-16T01:08:02.892Z,94.69
2023-04-16T01:10:30.212Z,94.87
2023-04-16T01:12:57.179Z,94.67
2023-04-16T01:15:24.114Z,94.74
2023-04-16T01:17:51.112Z,94.57
2023-04-16T01:20:18.076Z,94.58
2023-04-16T01:22:44.855Z,94.66
2023-04-16T01:25:16.012Z,94.32
2023-04-16T01:27:42.915Z,94.37
2023-04-16T01:30:10.062Z,94.29
2023-04-16T01:32:36.941Z,94.27
2023-04-16T01:35:03.983Z,94.27
2023-04-16T01:37:31.414Z,94.49
2023-04-16T01:39:58.352Z,94.43
2023-04-16T01:42:25.114Z,94.51
2023-04-16T01:44:51.885Z,94.17
2023-04-16T01:47:18.711Z,94.43
2023-04-16T01:49:48.401Z,94.54
2023-04-16T01:52:15.240Z,94.34
2023-04-16T01:54:42.307Z,94.50
2023-04-16T01:57:09.516Z,94.42
2023-04-16T01:59:36.318Z,94.51
2023-04-16T02:02:13.655Z,94.40
2023-04-16T02:04:42.067Z,94.28
2023-04-16T02:07:09.282Z,94.35
2023-04-16T02:09:40.627Z,94.36
2023-04-16T02:12:08.001Z,94.63
2023-04-16T02:14:34.737Z,94.75
2023-04-16T02:17:01.556Z,94.94
2023-04-16T02:19:28.372Z,94.97
2023-04-16T02:21:55.729Z,94.85
2023-04-16T02:24:22.665Z,95.11
2023-04-16T02:26:49.514Z,94.90
2023-04-16T02:29:16.719Z,94.80
2023-04-16T02:31:43.639Z,94.60
2023-04-16T02:34:10.511Z,94.68
2023-04-16T02:36:37.206Z,94.68
2023-04-16T02:39:04.402Z,94.74
2023-04-16T02:41:31.113Z,94.81
2023-04-16T02:43:57.857Z,94.73
2023-04-16T02:46:24.818Z,94.71
2023-04-16T02:48:51.724Z,94.70
2023-04-16T02:51:18.447Z,94.89
2023-04-16T02:53:46.309Z,94.90
2023-04-16T02:56:13.271Z,94.96
2023-04-16T02:58:39.946Z,94.95
2023-04-16T03:01:06.690Z,95.08
2023-04-16T03:03:33.497Z,94.99
2023-04-16T03:06:00.462Z,95.12
2023-04-16T03:08:27.867Z,94.94
2023-04-16T03:10:54.768Z,95.10
2023-04-16T03:13:21.569Z,95.10
2023-04-16T03:15:49.932Z,95.26
2023-04-16T03:18:16.748Z,95.48
2023-04-16T03:20:43.485Z,95.37
2023-04-16T03:23:10.603Z,95.53
2023-04-16T03:25:37.306Z,95.46
2023-04-16T03:28:04.699Z,95.48
2023-04-16T03:30:31.669Z,95.64
2023-04-16T03:32:58.536Z,95.71
2023-04-16T03:35:25.340Z,95.89
2023-04-16T03:37:52.884Z,95.78
2023-04-16T03:40:19.627Z,95.96
2023-04-16T03:42:46.672Z,96.10
2023-04-16T03:45:13.573Z,96.26
2023-04-16T03:47:40.401Z,96.29
2023-04-16T03:50:07.984Z,96.45
2023-04-16T03:52:34.773Z,96.31
2023-04-16T03:55:03.934Z,96.28
2023-04-16T03:57:30.639Z,96.37
2023-04-16T03:59:57.455Z,96.57
2023-04-16T04:02:24.341Z,96.58
2023-04-16T04:04:51.299Z,96.52
2023-04-16T04:07:18.175Z,96.42
2023-04-16T04:09:44.858Z,96.49
2023-04-16T04:12:11.663Z,96.49
2023-04-16T04:14:40.243Z,96.41
2023-04-16T04:17:08.858Z,96.44
2023-04-16T04:19:42.341Z,96.34
2023-04-16T04:22:14.144Z,96.52
2023-04-16T04:24:40.852Z,96.48
2023-04-16T04:27:07.704Z,96.45
2023-04-16T04:29:34.553Z,96.40
2023-04-16T04:32:02.130Z,96.37
2023-04-16T04:34:29.075Z,96.36
2023-04-16T04:36:55.844Z,96.32
2023-04-16T04:39:22.732Z,96.24
2023-04-16T04:41:49.594Z,96.10
2023-04-16T04:44:16.727Z,96.25
2023-04-16T04:46:43.591Z,96.19
2023-04-16T04:49:10.581Z,96.08
2023-04-16T04:51:37.700Z,96.11
2023-04-16T04:54:04.625Z,95.83
2023-04-16T04:56:31.331Z,95.84
2023-04-16T04:58:58.105Z,95.64
2023-04-16T05:01:25.054Z,95.70
2023-04-16T05:03:51.848Z,95.56
2023-04-16T05:06:18.769Z,95.62
2023-04-16T05:08:45.585Z,95.32
2023-04-16T05:11:12.330Z,95.29
2023-04-16T05:13:39.373Z,95.15
2023-04-16T05:16:07.052Z,95.08
2023-04-16T05:18:33.769Z,95.04
2023-04-16T05:21:00.618Z,94.98
2023-04-16T05:23:27.329Z,94.91
2023-04-16T05:25:54.122Z,94.87
2023-04-16T05:28:20.867Z,94.85
2023-04-16T05:30:47.557Z,94.86
2023-04-16T05:33:15.043Z,95.15
2023-04-16T05:35:41.928Z,94.96
2023-04-16T05:38:08.789Z,94.73
2023-04-16T05:40:44.265Z,94.76
2023-04-16T05:43:11.202Z,94.85
2023-04-16T05:45:41.645Z,94.82
2023-04-16T05:48:11.529Z,94.74
2023-04-16T05:50:38.747Z,94.76
2023-04-16T05:53:09.601Z,94.64
2023-04-16T05:55:39.244Z,95.04
2023-04-16T05:58:06.069Z,94.92
2023-04-16T06:00:33.667Z,95.02
2023-04-16T06:03:00.943Z,94.87
2023-04-16T06:05:28.106Z,94.99
2023-04-16T06:07:56.220Z,94.93
2023-04-16T06:10:23.092Z,95.15
2023-04-16T06:12:52.814Z,95.15
2023-04-16T06:15:19.619Z,95.14
2023-04-16T06:17:46.438Z,95.25
2023-04-16T06:20:13.599Z,95.17
2023-04-16T06:22:40.835Z,95.26
2023-04-16T06:25:08.023Z,94.85
2023-04-16T06:27:34.772Z,94.94
2023-04-16T06:33:39.722Z,95.01
2023-04-16T06:36:06.503Z,94.96
2023-04-16T06:41:14.637Z,94.39
2023-04-16T06:46:24.380Z,93.66
2023-04-16T06:51:31.482Z,93.40
2023-04-16T06:56:38.439Z,93.07
2023-04-16T06:59:05.056Z,92.96
2023-04-16T07:01:33.864Z,93.09
2023-04-16T07:04:00.900Z,92.90
2023-04-16T07:06:28.050Z,92.85
2023-04-16T07:08:54.650Z,92.82
2023-04-16T07:11:21.444Z,93.22
2023-04-16T07:13:48.210Z,93.36
2023-04-16T07:16:14.895Z,93.31
2023-04-16T07:18:41.499Z,93.22
2023-04-16T07:21:08.171Z,93.08
2023-04-16T07:23:34.799Z,93.13
2023-04-16T07:26:01.445Z,92.89
2023-04-16T07:28:28.079Z,92.65
2023-04-16T07:30:54.827Z,92.52
2023-04-16T07:33:21.461Z,92.31
2023-04-16T07:35:48.080Z,92.30
2023-04-16T07:38:15.121Z,92.26
2023-04-16T07:40:41.770Z,91.99
2023-04-16T07:43:08.715Z,91.97
2023-04-16T07:45:35.452Z,91.78
2023-04-16T07:48:02.188Z,91.33
2023-04-16T07:50:29.953Z,90.70
2023-04-16T07:52:56.539Z,90.40
2023-04-16T07:55:23.095Z,89.95
2023-04-16T07:57:49.676Z,89.42
2023-04-16T08:00:16.617Z,89.25
2023-04-16T08:02:44.433Z,89.07
2023-04-16T08:05:12.635Z,88.69
2023-04-16T08:07:39.271Z,88.72
2023-04-16T08:10:06.539Z,88.71
2023-04-16T08:12:33.219Z,88.71
2023-04-16T08:14:59.814Z,87.90
2023-04-16T08:17:26.540Z,87.83
2023-04-16T08:19:53.133Z,87.28
2023-04-16T08:22:19.848Z,87.58
2023-04-16T08:24:46.464Z,87.41
2023-04-16T08:27:18.972Z,87.07
2023-04-16T08:29:46.257Z,86.79
2023-04-16T08:32:13.157Z,86.93
2023-04-16T08:34:39.712Z,87.06
2023-04-16T08:37:06.306Z,87.21
2023-04-16T08:39:33.165Z,86.84
2023-04-16T08:42:04.878Z,86.23
2023-04-16T08:44:37.535Z,85.95
2023-04-16T08:47:07.597Z,85.49
2023-04-16T08:49:36.979Z,85.42
2023-04-16T08:52:06.768Z,85.39
2023-04-16T08:55:02.005Z,85.05
2023-04-16T08:57:35.733Z,85.00
2023-04-16T09:00:02.733Z,84.79
2023-04-16T09:02:31.559Z,84.88
2023-04-16T09:05:00.386Z,84.31
2023-04-16T09:07:29.015Z,84.44
2023-04-16T09:09:57.972Z,84.17
2023-04-16T09:12:30.794Z,84.08
2023-04-16T09:14:57.638Z,84.52
2023-04-16T09:17:25.403Z,84.15
2023-04-16T09:19:52.146Z,84.27
2023-04-16T09:22:18.778Z,83.69
2023-04-16T09:24:45.679Z,83.18
2023-04-16T09:27:13.102Z,83.24
2023-04-16T09:29:41.644Z,83.35
2023-04-16T09:32:10.276Z,83.26
2023-04-16T09:34:55.842Z,82.97
2023-04-16T09:37:22.429Z,82.75
2023-04-16T09:40:04.004Z,83.08
2023-04-16T09:42:32.796Z,82.51
2023-04-16T09:45:00.929Z,82.50
2023-04-16T09:47:41.559Z,82.57
2023-04-16T09:50:11.815Z,82.51
2023-04-16T09:52:39.284Z,82.19
2023-04-16T09:55:06.657Z,82.36
2023-04-16T09:57:33.292Z,82.05
2023-04-16T10:00:05.288Z,82.17
2023-04-16T10:02:33.324Z,82.17
2023-04-16T10:05:02.432Z,81.97
2023-04-16T10:07:31.755Z,82.14
2023-04-16T10:09:59.086Z,81.59
2023-04-16T10:12:28.262Z,82.00
2023-04-16T10:14:56.172Z,81.51
2023-04-16T10:17:24.085Z,81.14
2023-04-16T10:19:51.387Z,80.92
2023-04-16T10:22:18.340Z,80.85
2023-04-16T10:24:46.892Z,80.94
2023-04-16T10:27:15.536Z,80.77
2023-04-16T10:29:44.035Z,81.00
2023-04-16T10:32:12.277Z,81.35
2023-04-16T10:34:39.256Z,81.27
2023-04-16T10:37:05.991Z,81.17
2023-04-16T10:39:37.662Z,80.79
2023-04-16T10:42:09.549Z,80.41
2023-04-16T10:44:36.700Z,79.97
2023-04-16T10:47:13.457Z,79.98
2023-04-16T10:49:41.333Z,79.11
2023-04-16T10:52:12.270Z,78.90
2023-04-16T10:54:39.784Z,77.82
2023-04-16T10:57:08.994Z,78.07
2023-04-16T10:59:37.943Z,77.95
2023-04-16T11:02:13.324Z,78.27
2023-04-16T11:04:43.389Z,78.80
2023-04-16T11:07:17.701Z,79.30
2023-04-16T11:09:55.612Z,78.88
2023-04-16T11:12:44.904Z,78.61
2023-04-16T11:15:15.552Z,78.55
2023-04-16T11:17:48.145Z,77.29
2023-04-16T11:20:21.042Z,77.43
2023-04-16T11:22:52.442Z,76.69
2023-04-16T11:25:34.205Z,75.70
2023-04-16T11:28:02.483Z,76.54
2023-04-16T11:30:31.684Z,77.09
2023-04-16T11:32:58.479Z,76.87
2023-04-16T11:35:25.354Z,76.65
2023-04-16T11:37:58.961Z,76.47
2023-04-16T11:40:30.060Z,76.56
2023-04-16T11:43:02.697Z,75.83
2023-04-16T11:45:29.513Z,75.92
2023-04-16T11:47:58.025Z,76.05
2023-04-16T11:50:30.039Z,76.59
2023-04-16T11:53:04.349Z,76.62
2023-04-16T11:55:31.391Z,76.36
2023-04-16T11:57:57.978Z,76.12
2023-04-16T12:00:27.612Z,76.00
2023-04-16T12:08:33.337Z,75.26
2023-04-16T12:11:03.479Z,75.03
2023-04-16T12:13:30.813Z,74.68
2023-04-16T12:15:57.509Z,73.90
2023-04-16T12:21:08.862Z,73.10
2023-04-16T12:23:43.049Z,72.63
2023-04-16T12:26:12.775Z,71.17
2023-04-16T12:34:18.532Z,70.61
2023-04-16T12:39:29.597Z,70.30
2023-04-16T12:41:56.301Z,70.29
2023-04-16T12:44:23.985Z,70.94
2023-04-16T12:46:50.510Z,71.21
2023-04-16T12:49:17.073Z,70.81
2023-04-16T12:54:24.803Z,69.94
2023-04-16T12:59:34.937Z,69.40
2023-04-16T13:02:02.943Z,69.27
2023-04-16T13:07:10.073Z,70.05
2023-04-16T13:09:43.549Z,70.50
2023-04-16T13:12:16.570Z,71.21
2023-04-16T13:17:23.735Z,71.33
2023-04-16T13:19:51.704Z,71.49
2023-04-16T13:27:45.826Z,70.24
2023-04-16T13:30:12.822Z,69.93
2023-04-16T13:32:47.006Z,69.87
2023-04-16T13:35:14.222Z,70.04
2023-04-16T13:37:40.772Z,69.46
2023-04-16T13:40:08.434Z,69.53
2023-04-16T13:42:45.510Z,69.30
2023-04-16T13:45:13.932Z,69.57
2023-04-16T13:50:23.321Z,69.65
2023-04-16T13:52:49.900Z,69.85
2023-04-16T13:55:19.301Z,69.67
2023-04-16T13:57:51.211Z,69.63
2023-04-16T14:00:20.799Z,69.38
2023-04-16T14:02:49.106Z,69.46
2023-04-16T14:05:25.812Z,69.20
2023-04-16T14:07:56.467Z,68.82
2023-04-16T14:13:03.626Z,69.13
2023-04-16T14:18:10.876Z,69.94
2023-04-16T14:20:39.930Z,69.76
2023-04-16T14:23:06.770Z,69.73
2023-04-16T14:25:34.077Z,69.90
2023-04-16T14:30:41.691Z,70.04
2023-04-16T14:33:08.295Z,70.40
2023-04-16T14:35:35.041Z,70.24
2023-04-16T14:38:02.301Z,70.21
2023-04-16T14:40:28.947Z,70.11
2023-04-16T14:45:39.197Z,70.51
2023-04-16T14:50:46.722Z,70.52
2023-04-16T14:55:54.894Z,69.95
2023-04-16T14:58:22.130Z,68.92
2023-04-16T15:03:31.057Z,69.34
2023-04-16T15:05:58.462Z,68.80
2023-04-16T15:08:25.077Z,68.93
2023-04-16T15:10:51.930Z,68.53
2023-04-16T15:13:18.516Z,68.31
2023-04-16T15:15:45.529Z,68.52
2023-04-16T15:18:12.464Z,68.65
2023-04-16T15:20:39.218Z,68.46
2023-04-16T15:23:06.007Z,67.38
2023-04-16T15:25:32.660Z,67.48
2023-04-16T15:27:59.557Z,66.69
2023-04-16T15:30:26.246Z,67.01
2023-04-16T15:32:55.059Z,67.18
2023-04-16T15:35:22.685Z,67.17
2023-04-16T15:37:49.251Z,67.66
2023-04-16T15:40:18.918Z,67.32
2023-04-16T15:42:45.796Z,67.22
2023-04-16T15:45:15.290Z,67.15
2023-04-16T15:47:42.565Z,67.40
2023-04-16T15:50:09.729Z,67.45
2023-04-16T15:52:38.667Z,67.61
2023-04-16T15:57:48.274Z,68.14
2023-04-16T16:02:58.589Z,64.95
2023-04-16T16:05:35.062Z,64.82
2023-04-16T16:08:01.934Z,65.08
2023-04-16T16:10:28.576Z,62.71
2023-04-16T16:15:35.550Z,62.13
2023-04-16T16:20:44.266Z,62.03
2023-04-16T16:23:12.056Z,61.53
2023-04-16T16:25:43.498Z,61.22
2023-04-16T16:28:10.286Z,61.80
2023-04-16T16:30:36.913Z,62.35
2023-04-16T16:35:44.048Z,63.91
2023-04-16T16:38:13.525Z,64.65
2023-04-16T16:40:40.108Z,65.08
2023-04-16T16:45:47.361Z,65.95
2023-04-16T16:51:00.825Z,66.51
2023-04-16T16:56:09.063Z,66.59
2023-04-16T16:58:35.800Z,66.84
2023-04-16T17:01:10.295Z,67.00
2023-04-16T17:03:37.035Z,66.87
2023-04-16T17:06:03.881Z,67.27
2023-04-16T17:08:34.360Z,67.53
2023-04-16T17:11:04.558Z,67.76
2023-04-16T17:16:17.134Z,67.84
2023-04-16T17:18:43.743Z,67.89
2023-04-16T17:23:50.963Z,68.02
2023-04-16T17:26:17.640Z,67.97
2023-04-16T17:31:27.996Z,67.86
2023-04-16T17:36:37.002Z,75.74
2023-04-16T17:41:54.298Z,78.89
2023-04-16T17:44:27.016Z,79.47
2023-04-16T17:46:54.871Z,79.78
2023-04-16T17:49:21.483Z,80.02
2023-04-16T17:58:40.597Z,80.55
2023-04-16T18:01:07.356Z,80.51
2023-04-16T18:03:36.798Z,80.68
2023-04-16T18:06:04.322Z,80.51
2023-04-16T18:08:31.852Z,80.84
2023-04-16T18:10:58.720Z,81.56
2023-04-16T18:13:25.544Z,81.81
2023-04-16T18:15:53.220Z,82.41
2023-04-16T18:18:25.512Z,82.94
2023-04-16T18:20:52.923Z,82.82
2023-04-16T18:23:19.710Z,83.28
2023-04-16T18:25:48.836Z,83.74
2023-04-16T18:28:16.023Z,83.86
2023-04-16T18:30:43.000Z,83.33
2023-04-16T18:35:40.799Z,83.31
2023-04-16T18:38:07.772Z,83.52
2023-04-16T18:40:36.085Z,83.44
2023-04-16T18:43:04.917Z,83.95
2023-04-16T18:45:34.225Z,83.89
2023-04-16T18:48:04.713Z,84.16
2023-04-16T18:50:34.656Z,84.19
2023-04-16T18:53:03.262Z,84.61
2023-04-16T18:55:30.845Z,84.90
2023-04-16T18:57:57.926Z,84.92
2023-04-16T19:00:24.842Z,85.33
2023-04-16T19:02:51.572Z,85.35
2023-04-16T19:05:18.902Z,85.83
2023-04-16T19:07:46.144Z,85.75
2023-04-16T19:10:12.949Z,85.89
2023-04-16T19:12:39.694Z,85.74
2023-04-16T19:15:07.037Z,86.03
2023-04-16T19:17:34.127Z,86.22
2023-04-16T19:20:08.513Z,86.18
2023-04-16T19:22:35.885Z,86.19
2023-04-16T19:25:02.724Z,86.63
2023-04-16T19:27:29.775Z,86.53
2023-04-16T19:29:58.596Z,86.70
2023-04-16T19:32:25.540Z,86.65
2023-04-16T19:34:54.587Z,86.86
2023-04-16T19:37:21.468Z,86.61
2023-04-16T19:39:48.993Z,86.65
2023-04-16T19:42:15.955Z,86.69
2023-04-16T19:44:45.454Z,86.87
2023-04-16T19:47:12.203Z,86.93
2023-04-16T19:49:41.740Z,86.92
2023-04-16T19:52:08.624Z,87.02
2023-04-16T19:54:37.691Z,87.26
2023-04-16T19:57:04.774Z,87.36
2023-04-16T19:59:32.499Z,87.16
2023-04-16T20:01:59.460Z,87.43
2023-04-16T20:04:26.639Z,87.58
2023-04-16T20:06:53.736Z,87.31
2023-04-16T20:09:20.584Z,87.51
2023-04-16T20:11:47.698Z,87.60
2023-04-16T20:14:14.572Z,87.67
2023-04-16T20:16:43.933Z,87.76
2023-04-16T20:19:11.282Z,87.87
2023-04-16T20:21:40.821Z,88.04
2023-04-16T20:24:10.831Z,88.45
2023-04-16T20:26:37.851Z,88.54
2023-04-16T20:29:04.821Z,88.78
2023-04-16T20:31:38.032Z,89.01
2023-04-16T20:34:05.032Z,89.48
2023-04-16T20:36:32.284Z,89.21
2023-04-16T20:39:00.119Z,89.43
2023-04-16T20:41:30.316Z,89.36
2023-04-16T20:43:57.081Z,89.38
2023-04-16T20:46:24.688Z,89.39
2023-04-16T20:48:52.147Z,89.43
2023-04-16T20:51:19.082Z,89.64
2023-04-16T20:53:45.804Z,89.42
2023-04-16T20:56:15.115Z,89.55
2023-04-16T20:58:42.905Z,89.56
2023-04-16T21:01:09.907Z,89.49
2023-04-16T21:03:37.397Z,89.60
2023-04-16T21:06:05.088Z,89.50
2023-04-16T21:08:53.911Z,89.29
2023-04-16T21:11:36.630Z,89.32
2023-04-16T21:14:04.986Z,89.46
2023-04-16T21:28:30.159Z,89.43
2023-04-16T21:35:03.991Z,88.81
2023-04-16T21:37:43.609Z,89.12
2023-04-16T21:40:51.509Z,89.76
2023-04-16T21:44:20.849Z,90.41
2023-04-16T21:47:53.000Z,91.03
